sensor_id;sensor_type;location;lat;lon;timestamp;pressure;altitude;pressure_sealevel;temperature;humidity
65553;BME280;52465;51.560;14.368;2023-02-22T00:00:35;100422.22;;;9.85;69.07
65553;BME280;52465;51.560;14.368;2023-02-22T00:03:11;100404.88;;;9.84;68.46
65553;BME280;52465;51.560;14.368;2023-02-22T00:05:40;100401.28;;;9.85;68.74
65553;BME280;52465;51.560;14.368;2023-02-22T00:08:09;100387.63;;;9.73;68.99
65553;BME280;52465;51.560;14.368;2023-02-22T00:10:36;100406.53;;;9.85;69.11
65553;BME280;52465;51.560;14.368;2023-02-22T00:13:03;100378.72;;;9.66;68.97
65553;BME280;52465;51.560;14.368;2023-02-22T00:15:29;100375.72;;;9.61;69.20
65553;BME280;52465;51.560;14.368;2023-02-22T00:17:55;100392.25;;;9.79;69.02
65553;BME280;52465;51.560;14.368;2023-02-22T00:20:23;100375.13;;;9.67;69.11
65553;BME280;52465;51.560;14.368;2023-02-22T00:22:50;100399.81;;;9.82;69.00
65553;BME280;52465;51.560;14.368;2023-02-22T00:25:18;100373.63;;;9.64;69.13
65553;BME280;52465;51.560;14.368;2023-02-22T00:27:45;100391.59;;;9.77;68.77
65553;BME280;52465;51.560;14.368;2023-02-22T00:30:17;100395.69;;;9.79;69.08
65553;BME280;52465;51.560;14.368;2023-02-22T00:32:45;100354.59;;;9.54;68.85
65553;BME280;52465;51.560;14.368;2023-02-22T00:35:11;100393.72;;;9.81;68.96
65553;BME280;52465;51.560;14.368;2023-02-22T00:37:36;100388.00;;;9.78;69.02
65553;BME280;52465;51.560;14.368;2023-02-22T00:40:09;100372.53;;;9.67;68.78
65553;BME280;52465;51.560;14.368;2023-02-22T00:42:35;100390.28;;;9.81;68.69
65553;BME280;52465;51.560;14.368;2023-02-22T00:45:05;100377.31;;;9.71;68.79
65553;BME280;52465;51.560;14.368;2023-02-22T00:47:31;100397.19;;;9.82;69.11
65553;BME280;52465;51.560;14.368;2023-02-22T00:49:56;100394.03;;;9.78;68.51
65553;BME280;52465;51.560;14.368;2023-02-22T00:52:22;100346.22;;;9.50;68.81
65553;BME280;52465;51.560;14.368;2023-02-22T00:54:48;100377.91;;;9.65;68.72
65553;BME280;52465;51.560;14.368;2023-02-22T00:57:13;100390.44;;;9.79;68.86
65553;BME280;52465;51.560;14.368;2023-02-22T00:59:43;100335.38;;;9.45;68.64
65553;BME280;52465;51.560;14.368;2023-02-22T01:02:08;100391.28;;;9.80;68.81
65553;BME280;52465;51.560;14.368;2023-02-22T01:04:34;100376.94;;;9.66;69.13
65553;BME280;52465;51.560;14.368;2023-02-22T01:06:59;100378.34;;;9.78;68.84
65553;BME280;52465;51.560;14.368;2023-02-22T01:09:25;100382.59;;;9.79;68.58
65553;BME280;52465;51.560;14.368;2023-02-22T01:11:54;100350.03;;;9.56;68.93
65553;BME280;52465;51.560;14.368;2023-02-22T01:14:22;100373.72;;;9.72;69.06
65553;BME280;52465;51.560;14.368;2023-02-22T01:16:51;100351.97;;;9.54;68.58
65553;BME280;52465;51.560;14.368;2023-02-22T01:19:18;100380.81;;;9.80;68.78
65553;BME280;52465;51.560;14.368;2023-02-22T01:21:43;100388.00;;;9.78;68.76
65553;BME280;52465;51.560;14.368;2023-02-22T01:24:09;100385.38;;;9.78;68.86
65553;BME280;52465;51.560;14.368;2023-02-22T01:26:53;100358.75;;;9.65;68.59
65553;BME280;52465;51.560;14.368;2023-02-22T01:29:18;100369.91;;;9.67;68.86
65553;BME280;52465;51.560;14.368;2023-02-22T01:31:51;100368.50;;;9.72;69.07
65553;BME280;52465;51.560;14.368;2023-02-22T01:34:18;100360.88;;;9.61;69.05
65553;BME280;52465;51.560;14.368;2023-02-22T01:36:44;100361.09;;;9.68;68.77
65553;BME280;52465;51.560;14.368;2023-02-22T01:39:09;100359.59;;;9.65;68.53
65553;BME280;52465;51.560;14.368;2023-02-22T01:41:38;100383.06;;;9.75;69.10
65553;BME280;52465;51.560;14.368;2023-02-22T01:44:17;100366.31;;;9.68;68.56
65553;BME280;52465;51.560;14.368;2023-02-22T01:46:46;100341.53;;;9.54;68.61
65553;BME280;52465;51.560;14.368;2023-02-22T01:49:13;100329.19;;;9.46;68.76
65553;BME280;52465;51.560;14.368;2023-02-22T01:51:43;100370.41;;;9.70;69.02
65553;BME280;52465;51.560;14.368;2023-02-22T01:54:24;100373.28;;;9.77;68.94
65553;BME280;52465;51.560;14.368;2023-02-22T01:57:07;100375.09;;;9.76;68.88
65553;BME280;52465;51.560;14.368;2023-02-22T01:59:59;100356.31;;;9.63;68.75
65553;BME280;52465;51.560;14.368;2023-02-22T02:02:25;100373.41;;;9.75;68.59
65553;BME280;52465;51.560;14.368;2023-02-22T02:04:55;100344.06;;;9.64;68.47
65553;BME280;52465;51.560;14.368;2023-02-22T02:07:22;100353.09;;;9.69;68.71
65553;BME280;52465;51.560;14.368;2023-02-22T02:10:04;100362.28;;;9.73;68.63
65553;BME280;52465;51.560;14.368;2023-02-22T02:12:33;100345.47;;;9.58;68.97
65553;BME280;52465;51.560;14.368;2023-02-22T02:15:23;100367.53;;;9.73;68.74
65553;BME280;52465;51.560;14.368;2023-02-22T02:17:51;100355.31;;;9.64;68.70
65553;BME280;52465;51.560;14.368;2023-02-22T02:20:31;100368.50;;;9.72;69.18
65553;BME280;52465;51.560;14.368;2023-02-22T02:29:20;100367.69;;;9.72;68.93
65553;BME280;52465;51.560;14.368;2023-02-22T02:34:55;100368.50;;;9.72;68.69
65553;BME280;52465;51.560;14.368;2023-02-22T02:37:59;100336.16;;;9.56;68.56
65553;BME280;52465;51.560;14.368;2023-02-22T02:40:33;100354.72;;;9.70;68.96
65553;BME280;52465;51.560;14.368;2023-02-22T02:45:53;100359.31;;;9.68;68.75
65553;BME280;52465;51.560;14.368;2023-02-22T02:48:22;100367.97;;;9.69;68.67
65553;BME280;52465;51.560;14.368;2023-02-22T02:51:51;100346.66;;;9.64;68.59
65553;BME280;52465;51.560;14.368;2023-02-22T02:54:17;100336.03;;;9.47;68.99
65553;BME280;52465;51.560;14.368;2023-02-22T02:56:44;100346.44;;;9.57;69.09
65553;BME280;52465;51.560;14.368;2023-02-22T02:59:28;100360.13;;;9.69;68.68
65553;BME280;52465;51.560;14.368;2023-02-22T03:02:24;100364.38;;;9.70;68.95
65553;BME280;52465;51.560;14.368;2023-02-22T03:13:13;100323.28;;;9.44;68.79
65553;BME280;52465;51.560;14.368;2023-02-22T03:21:30;100370.41;;;9.70;68.76
65553;BME280;52465;51.560;14.368;2023-02-22T03:24:13;100353.53;;;9.65;69.00
65553;BME280;52465;51.560;14.368;2023-02-22T03:26:45;100358.47;;;9.68;69.08
65553;BME280;52465;51.560;14.368;2023-02-22T03:29:15;100357.28;;;9.62;68.75
65553;BME280;52465;51.560;14.368;2023-02-22T03:31:50;100367.97;;;9.69;68.87
65553;BME280;52465;51.560;14.368;2023-02-22T03:34:23;100363.03;;;9.66;69.20
65553;BME280;52465;51.560;14.368;2023-02-22T03:36:58;100350.69;;;9.58;68.97
65553;BME280;52465;51.560;14.368;2023-02-22T03:39:50;100371.41;;;9.69;68.60
65553;BME280;52465;51.560;14.368;2023-02-22T03:42:22;100357.66;;;9.67;68.87
65553;BME280;52465;51.560;14.368;2023-02-22T03:44:52;100351.59;;;9.67;68.56
65553;BME280;52465;51.560;14.368;2023-02-22T03:47:29;100347.50;;;9.64;68.78
65553;BME280;52465;51.560;14.368;2023-02-22T03:50:24;100357.00;;;9.65;69.08
65553;BME280;52465;51.560;14.368;2023-02-22T03:52:54;100330.69;;;9.49;68.78
65553;BME280;52465;51.560;14.368;2023-02-22T03:55:23;100347.94;;;9.60;68.90
65553;BME280;52465;51.560;14.368;2023-02-22T03:57:51;100346.97;;;9.61;68.92
65553;BME280;52465;51.560;14.368;2023-02-22T04:00:22;100358.75;;;9.65;68.63
65553;BME280;52465;51.560;14.368;2023-02-22T04:02:47;100361.91;;;9.68;68.70
65553;BME280;52465;51.560;14.368;2023-02-22T04:05:13;100351.44;;;9.68;68.71
65553;BME280;52465;51.560;14.368;2023-02-22T04:07:40;100357.66;;;9.67;68.86
65553;BME280;52465;51.560;14.368;2023-02-22T04:10:06;100363.72;;;9.68;68.68
65553;BME280;52465;51.560;14.368;2023-02-22T04:12:35;100354.66;;;9.62;68.79
65553;BME280;52465;51.560;14.368;2023-02-22T04:15:01;100352.44;;;9.67;68.93
65553;BME280;52465;51.560;14.368;2023-02-22T04:17:27;100356.69;;;9.68;68.93
65553;BME280;52465;51.560;14.368;2023-02-22T04:19:52;100329.72;;;9.50;68.51
65553;BME280;52465;51.560;14.368;2023-02-22T04:22:18;100357.81;;;9.66;69.01
65553;BME280;52465;51.560;14.368;2023-02-22T04:24:43;100345.47;;;9.58;68.86
65553;BME280;52465;51.560;14.368;2023-02-22T04:27:10;100344.38;;;9.61;69.04
65553;BME280;52465;51.560;14.368;2023-02-22T04:29:35;100335.44;;;9.53;68.78
65553;BME280;52465;51.560;14.368;2023-02-22T04:32:00;100339.81;;;9.63;68.86
65553;BME280;52465;51.560;14.368;2023-02-22T04:34:26;100258.06;;;9.07;68.97
65553;BME280;52465;51.560;14.368;2023-02-22T04:36:51;100332.78;;;9.63;68.43
65553;BME280;52465;51.560;14.368;2023-02-22T04:39:16;100339.97;;;9.61;68.76
65553;BME280;52465;51.560;14.368;2023-02-22T04:41:42;100345.19;;;9.61;69.14
65553;BME280;52465;51.560;14.368;2023-02-22T04:44:07;100341.31;;;9.65;68.76
65553;BME280;52465;51.560;14.368;2023-02-22T04:46:33;100339.13;;;9.61;68.80
65553;BME280;52465;51.560;14.368;2023-02-22T04:48:58;100331.72;;;9.56;68.57
65553;BME280;52465;51.560;14.368;2023-02-22T04:51:24;100314.03;;;9.50;69.19
65553;BME280;52465;51.560;14.368;2023-02-22T04:53:49;100335.38;;;9.63;68.89
65553;BME280;52465;51.560;14.368;2023-02-22T04:56:18;100338.00;;;9.63;68.95
65553;BME280;52465;51.560;14.368;2023-02-22T04:58:43;100321.88;;;9.50;69.13
65553;BME280;52465;51.560;14.368;2023-02-22T05:01:09;100328.97;;;9.58;68.89
65553;BME280;52465;51.560;14.368;2023-02-22T05:03:37;100328.81;;;9.59;68.63
65553;BME280;52465;51.560;14.368;2023-02-22T05:06:03;100335.56;;;9.62;68.85
65553;BME280;52465;51.560;14.368;2023-02-22T05:08:28;100316.34;;;9.53;68.93
65553;BME280;52465;51.560;14.368;2023-02-22T05:10:54;100300.88;;;9.42;69.06
65553;BME280;52465;51.560;14.368;2023-02-22T05:13:19;100281.97;;;9.30;68.83
65553;BME280;52465;51.560;14.368;2023-02-22T05:15:45;100339.97;;;9.61;68.57
65553;BME280;52465;51.560;14.368;2023-02-22T05:18:12;100314.69;;;9.52;69.05
65553;BME280;52465;51.560;14.368;2023-02-22T05:20:37;100335.00;;;9.58;69.34
65553;BME280;52465;51.560;14.368;2023-02-22T05:23:03;100322.25;;;9.55;68.61
65553;BME280;52465;51.560;14.368;2023-02-22T05:25:29;100330.91;;;9.56;68.82
65553;BME280;52465;51.560;14.368;2023-02-22T05:28:03;100337.50;;;9.60;68.71
65553;BME280;52465;51.560;14.368;2023-02-22T05:30:33;100337.63;;;9.58;68.71
65553;BME280;52465;51.560;14.368;2023-02-22T05:32:59;100322.38;;;9.53;69.02
65553;BME280;52465;51.560;14.368;2023-02-22T05:35:25;100334.03;;;9.59;69.07
65553;BME280;52465;51.560;14.368;2023-02-22T05:37:51;100310.66;;;9.40;68.89
65553;BME280;52465;51.560;14.368;2023-02-22T05:40:22;100335.00;;;9.58;69.14
65553;BME280;52465;51.560;14.368;2023-02-22T05:42:48;100339.25;;;9.59;69.19
65553;BME280;52465;51.560;14.368;2023-02-22T05:45:15;100310.88;;;9.46;68.64
65553;BME280;52465;51.560;14.368;2023-02-22T05:47:44;100336.00;;;9.57;68.51
65553;BME280;52465;51.560;14.368;2023-02-22T05:50:10;100333.00;;;9.52;69.00
65553;BME280;52465;51.560;14.368;2023-02-22T05:52:35;100340.25;;;9.58;68.87
65553;BME280;52465;51.560;14.368;2023-02-22T05:55:01;100312.59;;;9.38;68.79
65553;BME280;52465;51.560;14.368;2023-02-22T05:57:26;100338.75;;;9.56;68.70
65553;BME280;52465;51.560;14.368;2023-02-22T05:59:51;100336.75;;;9.49;68.88
65553;BME280;52465;51.560;14.368;2023-02-22T06:02:17;100329.63;;;9.42;68.64
65553;BME280;52465;51.560;14.368;2023-02-22T06:04:46;100328.66;;;9.43;68.71
65553;BME280;52465;51.560;14.368;2023-02-22T06:07:13;100318.50;;;9.40;69.06
65553;BME280;52465;51.560;14.368;2023-02-22T06:09:39;100343.16;;;9.55;69.10
65553;BME280;52465;51.560;14.368;2023-02-22T06:12:05;100316.88;;;9.39;68.49
65553;BME280;52465;51.560;14.368;2023-02-22T06:14:31;100356.22;;;9.55;68.80
65553;BME280;52465;51.560;14.368;2023-02-22T06:16:56;100342.63;;;9.51;68.57
65553;BME280;52465;51.560;14.368;2023-02-22T06:19:22;100337.56;;;9.50;68.72
65553;BME280;52465;51.560;14.368;2023-02-22T06:22:34;100346.59;;;9.56;69.11
65553;BME280;52465;51.560;14.368;2023-02-22T06:25:02;100353.63;;;9.55;68.57
65553;BME280;52465;51.560;14.368;2023-02-22T06:27:30;100351.97;;;9.54;68.91
65553;BME280;52465;51.560;14.368;2023-02-22T06:29:56;100357.50;;;9.51;68.63
65553;BME280;52465;51.560;14.368;2023-02-22T06:32:21;100355.69;;;9.51;68.84
65553;BME280;52465;51.560;14.368;2023-02-22T06:34:47;100335.31;;;9.37;68.81
65553;BME280;52465;51.560;14.368;2023-02-22T06:37:12;100372.03;;;9.53;68.54
65553;BME280;52465;51.560;14.368;2023-02-22T06:39:38;100347.78;;;9.43;68.89
65553;BME280;52465;51.560;14.368;2023-02-22T06:42:03;100353.81;;;9.44;69.01
65553;BME280;52465;51.560;14.368;2023-02-22T06:44:29;100374.66;;;9.53;68.78
65553;BME280;52465;51.560;14.368;2023-02-22T06:46:54;100361.66;;;9.44;68.62
65553;BME280;52465;51.560;14.368;2023-02-22T06:49:20;100373.16;;;9.51;68.95
65553;BME280;52465;51.560;14.368;2023-02-22T06:51:46;100368.75;;;9.51;69.15
65553;BME280;52465;51.560;14.368;2023-02-22T06:54:12;100335.88;;;9.31;68.90
65553;BME280;52465;51.560;14.368;2023-02-22T06:56:38;100366.75;;;9.45;69.09
65553;BME280;52465;51.560;14.368;2023-02-22T06:59:03;100365.09;;;9.44;68.96
65553;BME280;52465;51.560;14.368;2023-02-22T07:01:29;100383.47;;;9.52;68.95
65553;BME280;52465;51.560;14.368;2023-02-22T07:03:55;100376.59;;;9.51;68.73
65553;BME280;52465;51.560;14.368;2023-02-22T07:06:20;100380.03;;;9.52;68.67
65553;BME280;52465;51.560;14.368;2023-02-22T07:08:46;100382.50;;;9.53;69.13
65553;BME280;52465;51.560;14.368;2023-02-22T07:11:12;100379.88;;;9.53;68.86
65553;BME280;52465;51.560;14.368;2023-02-22T07:13:38;100373.91;;;9.43;68.53
65553;BME280;52465;51.560;14.368;2023-02-22T07:16:04;100379.13;;;9.43;68.65
65553;BME280;52465;51.560;14.368;2023-02-22T07:18:29;100388.84;;;9.51;69.04
65553;BME280;52465;51.560;14.368;2023-02-22T07:20:55;100360.47;;;9.38;68.60
65553;BME280;52465;51.560;14.368;2023-02-22T07:23:23;100377.72;;;9.49;68.74
65553;BME280;52465;51.560;14.368;2023-02-22T07:25:48;100368.53;;;9.45;68.61
65553;BME280;52465;51.560;14.368;2023-02-22T07:28:14;100377.03;;;9.47;68.95
65553;BME280;52465;51.560;14.368;2023-02-22T07:30:39;100369.34;;;9.45;68.74
65553;BME280;52465;51.560;14.368;2023-02-22T07:33:09;100383.38;;;9.44;68.77
65553;BME280;52465;51.560;14.368;2023-02-22T07:35:36;100391.47;;;9.51;68.63
65553;BME280;52465;51.560;14.368;2023-02-22T07:38:03;100376.81;;;9.40;69.14
65553;BME280;52465;51.560;14.368;2023-02-22T07:40:32;100382.41;;;9.45;68.79
65553;BME280;52465;51.560;14.368;2023-02-22T07:43:00;100386.66;;;9.46;68.76
65553;BME280;52465;51.560;14.368;2023-02-22T07:45:29;100354.63;;;9.26;68.95
65553;BME280;52465;51.560;14.368;2023-02-22T07:47:55;100386.66;;;9.46;69.02
65553;BME280;52465;51.560;14.368;2023-02-22T07:50:25;100391.91;;;9.46;68.78
65553;BME280;52465;51.560;14.368;2023-02-22T07:52:53;100391.63;;;9.49;69.03
65553;BME280;52465;51.560;14.368;2023-02-22T07:55:22;100405.34;;;9.51;68.63
65553;BME280;52465;51.560;14.368;2023-02-22T07:57:49;100389.81;;;9.50;68.64
65553;BME280;52465;51.560;14.368;2023-02-22T08:00:24;100395.72;;;9.52;68.84
65553;BME280;52465;51.560;14.368;2023-02-22T08:02:50;100376.66;;;9.42;69.02
65553;BME280;52465;51.560;14.368;2023-02-22T08:05:15;100391.31;;;9.52;68.97
65553;BME280;52465;51.560;14.368;2023-02-22T08:07:40;100392.44;;;9.50;68.59
65553;BME280;52465;51.560;14.368;2023-02-22T08:10:16;100384.88;;;9.47;68.67
65553;BME280;52465;51.560;14.368;2023-02-22T08:13:06;100398.31;;;9.52;68.62
65553;BME280;52465;51.560;14.368;2023-02-22T08:15:33;100397.50;;;9.51;69.10
65553;BME280;52465;51.560;14.368;2023-02-22T08:18:01;100372.16;;;9.34;68.99
65553;BME280;52465;51.560;14.368;2023-02-22T08:20:27;100396.69;;;9.51;69.09
65553;BME280;52465;51.560;14.368;2023-02-22T08:22:53;100393.41;;;9.49;68.69
65553;BME280;52465;51.560;14.368;2023-02-22T08:25:23;100398.47;;;9.50;68.64
65553;BME280;52465;51.560;14.368;2023-02-22T08:27:49;100396.69;;;9.51;68.55
65553;BME280;52465;51.560;14.368;2023-02-22T08:30:18;100382.66;;;9.52;68.77
65553;BME280;52465;51.560;14.368;2023-02-22T08:32:45;100381.97;;;9.50;68.38
65553;BME280;52465;51.560;14.368;2023-02-22T08:35:12;100381.28;;;9.48;68.67
65553;BME280;52465;51.560;14.368;2023-02-22T08:37:41;100372.97;;;9.35;68.79
65553;BME280;52465;51.560;14.368;2023-02-22T08:40:07;100380.22;;;9.41;68.68
65553;BME280;52465;51.560;14.368;2023-02-22T08:42:33;100397.66;;;9.50;68.88
65553;BME280;52465;51.560;14.368;2023-02-22T08:44:58;100389.66;;;9.51;69.00
65553;BME280;52465;51.560;14.368;2023-02-22T08:47:24;100368.41;;;9.37;68.84
65553;BME280;52465;51.560;14.368;2023-02-22T08:49:49;100377.84;;;9.47;69.04
65553;BME280;52465;51.560;14.368;2023-02-22T08:52:15;100391.63;;;9.49;68.47
65553;BME280;52465;51.560;14.368;2023-02-22T08:54:40;100389.66;;;9.51;68.88
65553;BME280;52465;51.560;14.368;2023-02-22T08:57:05;100390.91;;;9.47;68.59
65553;BME280;52465;51.560;14.368;2023-02-22T08:59:31;100396.69;;;9.51;68.55
65553;BME280;52465;51.560;14.368;2023-02-22T09:01:59;100360.88;;;9.34;68.66
65553;BME280;52465;51.560;14.368;2023-02-22T09:04:24;100377.63;;;9.41;68.78
65553;BME280;52465;51.560;14.368;2023-02-22T09:06:49;100389.28;;;9.46;68.83
65553;BME280;52465;51.560;14.368;2023-02-22T09:09:17;100397.50;;;9.51;68.57
65553;BME280;52465;51.560;14.368;2023-02-22T09:11:45;100394.22;;;9.49;68.36
65553;BME280;52465;51.560;14.368;2023-02-22T09:14:10;100399.31;;;9.51;68.84
65553;BME280;52465;51.560;14.368;2023-02-22T09:16:36;100374.19;;;9.40;68.56
65553;BME280;52465;51.560;14.368;2023-02-22T09:19:02;100376.66;;;9.42;68.75
65553;BME280;52465;51.560;14.368;2023-02-22T09:21:27;100393.91;;;9.52;68.85
65553;BME280;52465;51.560;14.368;2023-02-22T09:23:53;100392.44;;;9.50;68.59
65553;BME280;52465;51.560;14.368;2023-02-22T09:26:20;100381.59;;;9.45;68.70
65553;BME280;52465;51.560;14.368;2023-02-22T09:28:48;100400.13;;;9.51;68.78
65553;BME280;52465;51.560;14.368;2023-02-22T09:31:14;100350.63;;;9.22;68.50
65553;BME280;52465;51.560;14.368;2023-02-22T09:33:40;100381.88;;;9.42;68.75
65553;BME280;52465;51.560;14.368;2023-02-22T09:36:06;100392.00;;;9.54;68.44
65553;BME280;52465;51.560;14.368;2023-02-22T09:38:31;100390.34;;;9.53;68.68
65553;BME280;52465;51.560;14.368;2023-02-22T09:41:05;100386.91;;;9.53;68.96
65553;BME280;52465;51.560;14.368;2023-02-22T09:43:57;100377.56;;;9.50;69.05
65553;BME280;52465;51.560;14.368;2023-02-22T09:52:14;100378.25;;;9.52;68.99
65553;BME280;52465;51.560;14.368;2023-02-22T09:55:04;100375.78;;;9.51;68.39
65553;BME280;52465;51.560;14.368;2023-02-22T09:57:36;100365.47;;;9.49;68.50
65553;BME280;52465;51.560;14.368;2023-02-22T10:00:21;100352.47;;;9.40;68.55
65553;BME280;52465;51.560;14.368;2023-02-22T10:03:16;100370.41;;;9.52;68.52
65553;BME280;52465;51.560;14.368;2023-02-22T10:05:53;100367.66;;;9.54;68.42
65553;BME280;52465;51.560;14.368;2023-02-22T10:08:43;100366.00;;;9.53;68.36
65553;BME280;52465;51.560;14.368;2023-02-22T10:14:16;100367.78;;;9.52;68.36
65553;BME280;52465;51.560;14.368;2023-02-22T10:20:02;100363.38;;;9.53;68.67
65553;BME280;52465;51.560;14.368;2023-02-22T10:22:41;100351.59;;;9.49;68.66
65553;BME280;52465;51.560;14.368;2023-02-22T10:25:35;100362.56;;;9.52;68.60
65553;BME280;52465;51.560;14.368;2023-02-22T10:30:37;100357.63;;;9.49;68.53
65553;BME280;52465;51.560;14.368;2023-02-22T10:33:32;100361.06;;;9.50;68.53
65553;BME280;52465;51.560;14.368;2023-02-22T10:36:01;100332.81;;;9.36;68.42
65553;BME280;52465;51.560;14.368;2023-02-22T10:38:33;100358.97;;;9.53;68.23
65553;BME280;52465;51.560;14.368;2023-02-22T10:43:33;100354.72;;;9.52;68.46
65553;BME280;52465;51.560;14.368;2023-02-22T10:46:04;100327.97;;;9.41;68.61
65553;BME280;52465;51.560;14.368;2023-02-22T10:48:34;100347.03;;;9.51;68.73
65553;BME280;52465;51.560;14.368;2023-02-22T10:51:04;100333.03;;;9.42;68.60
65553;BME280;52465;51.560;14.368;2023-02-22T10:53:30;100347.56;;;9.54;68.80
65553;BME280;52465;51.560;14.368;2023-02-22T10:56:18;100359.50;;;9.57;68.42
65553;BME280;52465;51.560;14.368;2023-02-22T10:58:53;100354.44;;;9.56;68.59
65553;BME280;52465;51.560;14.368;2023-02-22T11:01:34;100335.91;;;9.49;68.73
65553;BME280;52465;51.560;14.368;2023-02-22T11:04:10;100344.97;;;9.54;68.38
65553;BME280;52465;51.560;14.368;2023-02-22T11:06:38;100321.66;;;9.43;68.91
65553;BME280;52465;51.560;14.368;2023-02-22T11:09:10;100306.03;;;9.34;68.53
65553;BME280;52465;51.560;14.368;2023-02-22T11:11:39;100338.59;;;9.57;68.49
65553;BME280;52465;51.560;14.368;2023-02-22T11:14:05;100342.84;;;9.58;68.92
65553;BME280;52465;51.560;14.368;2023-02-22T11:16:34;100345.78;;;9.55;68.65
65553;BME280;52465;51.560;14.368;2023-02-22T11:19:20;100344.66;;;9.58;68.63
65553;BME280;52465;51.560;14.368;2023-02-22T11:21:50;100330.38;;;9.52;68.57
65553;BME280;52465;51.560;14.368;2023-02-22T11:24:19;100335.31;;;9.55;68.18
65553;BME280;52465;51.560;14.368;2023-02-22T11:26:52;100338.59;;;9.57;68.84
65553;BME280;52465;51.560;14.368;2023-02-22T11:29:23;100334.03;;;9.59;68.33
65553;BME280;52465;51.560;14.368;2023-02-22T11:31:50;100316.28;;;9.45;68.61
65553;BME280;52465;51.560;14.368;2023-02-22T11:42:42;100287.59;;;9.35;68.47
65553;BME280;52465;51.560;14.368;2023-02-22T11:45:13;100325.25;;;9.60;68.51
65553;BME280;52465;51.560;14.368;2023-02-22T11:47:55;100293.19;;;9.40;68.05
65553;BME280;52465;51.560;14.368;2023-02-22T11:50:28;100316.34;;;9.53;68.59
65553;BME280;52465;51.560;14.368;2023-02-22T11:53:17;100320.84;;;9.61;68.35
65553;BME280;52465;51.560;14.368;2023-02-22T11:56:12;100324.28;;;9.61;68.83
65553;BME280;52465;51.560;14.368;2023-02-22T11:58:48;100318.06;;;9.62;68.26
65553;BME280;52465;51.560;14.368;2023-02-22T12:05:12;100312.03;;;9.62;68.34
65553;BME280;52465;51.560;14.368;2023-02-22T12:08:15;100305.97;;;9.61;68.50
65553;BME280;52465;51.560;14.368;2023-02-22T12:16:57;100305.00;;;9.62;68.66
65553;BME280;52465;51.560;14.368;2023-02-22T12:19:34;100312.84;;;9.62;68.04
65553;BME280;52465;51.560;14.368;2023-02-22T12:22:07;100299.25;;;9.59;68.63
65553;BME280;52465;51.560;14.368;2023-02-22T12:24:45;100310.38;;;9.61;68.46
65553;BME280;52465;51.560;14.368;2023-02-22T12:27:31;100299.63;;;9.64;68.17
65553;BME280;52465;51.560;14.368;2023-02-22T12:32:45;100301.41;;;9.63;68.30
65553;BME280;52465;51.560;14.368;2023-02-22T12:35:28;100301.25;;;9.65;68.40
65553;BME280;52465;51.560;14.368;2023-02-22T12:38:17;100298.63;;;9.65;68.65
65553;BME280;52465;51.560;14.368;2023-02-22T12:43:38;100296.34;;;9.62;68.49
65553;BME280;52465;51.560;14.368;2023-02-22T12:46:10;100285.50;;;9.57;68.24
65553;BME280;52465;51.560;14.368;2023-02-22T12:48:53;100302.75;;;9.67;68.11
65553;BME280;52465;51.560;14.368;2023-02-22T12:51:30;100298.34;;;9.68;68.19
65553;BME280;52465;51.560;14.368;2023-02-22T12:54:20;100305.38;;;9.67;68.30
65553;BME280;52465;51.560;14.368;2023-02-22T12:56:56;100296.50;;;9.60;68.26
65553;BME280;52465;51.560;14.368;2023-02-22T13:00:00;100298.50;;;9.66;68.23
65553;BME280;52465;51.560;14.368;2023-02-22T13:02:36;100298.34;;;9.68;68.69
65553;BME280;52465;51.560;14.368;2023-02-22T13:05:05;100289.16;;;9.64;68.15
65553;BME280;52465;51.560;14.368;2023-02-22T13:11:00;100291.34;;;9.68;68.24
65553;BME280;52465;51.560;14.368;2023-02-22T13:13:47;100294.75;;;9.69;68.56
65553;BME280;52465;51.560;14.368;2023-02-22T13:16:38;100288.19;;;9.65;68.49
65553;BME280;52465;51.560;14.368;2023-02-22T13:19:17;100281.19;;;9.65;68.24
65553;BME280;52465;51.560;14.368;2023-02-22T13:22:10;100289.53;;;9.69;68.10
65553;BME280;52465;51.560;14.368;2023-02-22T13:24:51;100278.25;;;9.68;68.18
65553;BME280;52465;51.560;14.368;2023-02-22T13:27:26;100272.50;;;9.65;68.55
65553;BME280;52465;51.560;14.368;2023-02-22T13:29:58;100267.88;;;9.59;68.27
65553;BME280;52465;51.560;14.368;2023-02-22T13:32:48;100273.19;;;9.67;68.20
65553;BME280;52465;51.560;14.368;2023-02-22T13:43:22;100277.28;;;9.69;68.27
65553;BME280;52465;51.560;14.368;2023-02-22T13:46:09;100275.50;;;9.70;68.53
65553;BME280;52465;51.560;14.368;2023-02-22T13:48:58;100269.44;;;9.69;68.53
65553;BME280;52465;51.560;14.368;2023-02-22T13:54:16;100272.88;;;9.70;68.25
65553;BME280;52465;51.560;14.368;2023-02-22T13:56:44;100281.53;;;9.70;68.30
65553;BME280;52465;51.560;14.368;2023-02-22T13:59:33;100278.91;;;9.70;68.09
65553;BME280;52465;51.560;14.368;2023-02-22T14:02:00;100274.38;;;9.72;68.15
65553;BME280;52465;51.560;14.368;2023-02-22T14:07:03;100271.09;;;9.70;68.46
65553;BME280;52465;51.560;14.368;2023-02-22T14:09:49;100271.09;;;9.70;68.60
65553;BME280;52465;51.560;14.368;2023-02-22T14:17:42;100258.00;;;9.70;68.30
65553;BME280;52465;51.560;14.368;2023-02-22T14:22:45;100254.75;;;9.68;68.08
65553;BME280;52465;51.560;14.368;2023-02-22T14:25:31;100258.84;;;9.71;68.63
65553;BME280;52465;51.560;14.368;2023-02-22T14:27:58;100265.56;;;9.73;68.59
65553;BME280;52465;51.560;14.368;2023-02-22T14:30:27;100264.75;;;9.73;68.56
65553;BME280;52465;51.560;14.368;2023-02-22T14:32:54;100253.47;;;9.72;68.69
65553;BME280;52465;51.560;14.368;2023-02-22T14:35:20;100258.53;;;9.74;68.19
65553;BME280;52465;51.560;14.368;2023-02-22T14:37:51;100256.09;;;9.72;68.50
65553;BME280;52465;51.560;14.368;2023-02-22T14:40:24;100247.25;;;9.73;68.56
65553;BME280;52465;51.560;14.368;2023-02-22T14:43:05;100255.09;;;9.73;68.16